CDT,Max TemperatureF,Mean TemperatureF,Min TemperatureF,Max Dew PointF,MeanDew PointF,Min DewpointF,Max Humidity, Mean Humidity, Min Humidity, Max Sea Level PressureIn, Mean Sea Level PressureIn, Min Sea Level PressureIn, Max VisibilityMiles, Mean VisibilityMiles, Min VisibilityMiles, Max Wind SpeedMPH, Mean Wind SpeedMPH, Max Gust SpeedMPH,PrecipitationIn, CloudCover, Events, WindDirDegrees
2013-9-1,88,77,68,76,72,68,100,94,64,30.00,29.85,29.78,10,8,0,34,7,54,1.38,2,Fog-Rain-Thunderstorm,53
2013-9-2,81,70,61,67,64,62,100,81,52,30.04,29.99,29.93,10,10,10,9,6,,0.00,0,,353
2013-9-3,82,69,56,66,60,56,100,77,40,30.12,30.06,30.01,10,9,5,8,4,,0.00,0,,46
2013-9-4,85,70,56,72,63,56,100,80,45,30.18,30.12,30.07,10,10,10,5,1,,0.00,0,,104
2013-9-5,87,72,59,70,64,59,100,80,44,30.22,30.16,30.12,10,10,10,7,2,,0.00,2,,111
2013-9-6,87,74,61,72,66,62,100,77,45,30.16,30.09,30.00,10,10,10,8,4,,0.00,1,,165
2013-9-7,94,80,65,73,68,65,100,72,41,30.02,29.96,29.90,10,10,10,14,8,,0.00,0,,198
2013-9-8,94,83,73,74,72,70,93,73,48,29.92,29.88,29.83,10,10,10,15,8,,0.00,1,,192
2013-9-9,95,82,69,72,66,60,99,62,30,29.96,29.92,29.87,10,10,10,23,10,26,0.00,0,,208
2013-9-10,95,82,68,69,66,64,99,64,36,30.09,30.03,29.96,10,10,10,17,9,25,0.00,0,,204
2013-9-11,94,80,67,69,66,64,99,67,37,30.14,30.08,30.03,10,10,10,12,7,20,0.00,1,,220
2013-9-12,87,78,64,72,65,48,100,74,45,30.14,30.09,30.03,10,10,6,12,6,,0.00,6,Rain,12
2013-9-13,77,64,52,54,49,47,93,60,35,30.18,30.13,30.06,10,10,7,14,6,20,0.00,1,,48
2013-9-14,78,64,49,51,48,45,90,67,34,30.15,30.08,29.98,10,9,5,10,4,,0.00,1,,134
2013-9-15,84,72,61,70,63,52,100,79,47,30.13,30.04,29.96,10,9,4,15,9,20,0.17,4,Rain-Thunderstorm,340
2013-9-16,63,61,58,64,61,59,100,100,99,30.28,30.20,30.14,10,8,2,15,10,16,0.22,8,Rain-Thunderstorm,65
2013-9-17,69,64,60,70,65,61,100,100,100,30.21,30.13,30.01,10,7,1,10,5,,0.66,6,Rain,144
2013-9-18,86,76,67,73,71,67,100,86,61,30.00,29.94,29.87,10,9,5,20,10,25,0.00,4,Rain,182
2013-9-19,91,80,68,73,69,68,100,80,50,29.94,29.88,29.77,10,10,3,23,12,30,0.44,3,Rain-Thunderstorm,208
2013-9-20,70,64,55,68,62,52,100,90,54,30.02,29.95,29.88,10,9,5,17,7,21,0.02,6,Rain,311
2013-9-21,72,60,49,53,50,46,99,74,40,30.05,29.99,29.93,10,10,9,10,4,,0.00,0,,317
2013-9-22,75,60,46,56,51,47,100,74,41,30.02,29.95,29.90,10,10,10,8,1,,0.00,0,,145
2013-9-23,77,64,51,56,54,52,100,73,45,29.98,29.90,29.84,10,10,10,16,7,20,0.00,0,,145
2013-9-24,77,66,56,61,59,56,100,82,56,29.86,29.82,29.79,10,10,10,13,9,,0.00,3,,217
2013-9-25,79,67,57,67,62,57,100,93,62,29.91,29.85,29.83,10,7,0,7,4,,0.00,4,Fog,32
2013-9-26,83,71,59,68,63,59,100,87,51,29.96,29.91,29.87,10,8,2,15,6,20,0.00,0,,148
2013-9-27,85,75,65,69,66,64,100,79,49,30.02,29.95,29.91,10,10,10,16,10,22,0.00,1,,160
2013-9-28,72,61,51,72,63,52,100,98,83,30.09,29.98,29.87,10,7,1,18,10,24,0.20,5,Rain-Thunderstorm,230
2013-9-29,72,57,43,62,52,44,100,88,49,30.13,30.07,29.98,10,5,0,6,2,,0.00,1,Fog-Rain,186
2013-9-30,77,60,46,70,55,32,100,92,32,29.97,29.93,29.86,10,6,0,13,3,18,0.00,3,Fog,177